sensor_id;sensor_type;location;lat;lon;timestamp;temperature;humidity
73360;DHT22;63092;43.582;19.528;2023-06-14T00:00:58;17.50;99.90
73360;DHT22;63092;43.582;19.528;2023-06-14T00:03:24;17.50;99.90
73360;DHT22;63092;43.582;19.528;2023-06-14T00:05:51;17.40;99.90
73360;DHT22;63092;43.582;19.528;2023-06-14T00:08:17;17.50;99.90
73360;DHT22;63092;43.582;19.528;2023-06-14T00:10:44;17.50;99.90
73360;DHT22;63092;43.582;19.528;2023-06-14T00:13:10;17.40;99.90
73360;DHT22;63092;43.582;19.528;2023-06-14T00:15:36;17.30;99.90
73360;DHT22;63092;43.582;19.528;2023-06-14T00:18:03;17.30;99.90
73360;DHT22;63092;43.582;19.528;2023-06-14T00:20:32;17.20;99.90
73360;DHT22;63092;43.582;19.528;2023-06-14T00:23:01;17.10;99.90
73360;DHT22;63092;43.582;19.528;2023-06-14T00:25:28;17.10;99.90
73360;DHT22;63092;43.582;19.528;2023-06-14T00:27:54;17.00;99.90
73360;DHT22;63092;43.582;19.528;2023-06-14T00:30:21;17.00;99.90
73360;DHT22;63092;43.582;19.528;2023-06-14T00:32:47;16.90;99.90
73360;DHT22;63092;43.582;19.528;2023-06-14T00:35:13;16.80;99.90
73360;DHT22;63092;43.582;19.528;2023-06-14T00:37:39;16.60;99.90
73360;DHT22;63092;43.582;19.528;2023-06-14T00:40:06;16.50;99.90
73360;DHT22;63092;43.582;19.528;2023-06-14T00:42:32;16.50;99.90
73360;DHT22;63092;43.582;19.528;2023-06-14T00:44:59;16.50;99.90
73360;DHT22;63092;43.582;19.528;2023-06-14T00:47:25;16.60;99.90
73360;DHT22;63092;43.582;19.528;2023-06-14T00:49:53;16.50;99.90
73360;DHT22;63092;43.582;19.528;2023-06-14T00:52:21;16.50;99.90
73360;DHT22;63092;43.582;19.528;2023-06-14T00:54:47;16.40;99.90
73360;DHT22;63092;43.582;19.528;2023-06-14T00:57:14;16.40;99.90
73360;DHT22;63092;43.582;19.528;2023-06-14T00:59:47;16.40;99.90
73360;DHT22;63092;43.582;19.528;2023-06-14T01:02:14;16.50;99.90
73360;DHT22;63092;43.582;19.528;2023-06-14T01:04:45;16.50;99.90
73360;DHT22;63092;43.582;19.528;2023-06-14T01:12:58;16.60;99.90
73360;DHT22;63092;43.582;19.528;2023-06-14T01:15:27;16.40;99.90
73360;DHT22;63092;43.582;19.528;2023-06-14T01:17:55;16.50;99.90
73360;DHT22;63092;43.582;19.528;2023-06-14T01:20:29;16.50;99.90
73360;DHT22;63092;43.582;19.528;2023-06-14T01:22:55;16.50;99.90
73360;DHT22;63092;43.582;19.528;2023-06-14T01:25:22;16.60;99.90
73360;DHT22;63092;43.582;19.528;2023-06-14T01:28:02;16.60;99.90
73360;DHT22;63092;43.582;19.528;2023-06-14T01:30:29;16.60;99.90
73360;DHT22;63092;43.582;19.528;2023-06-14T01:32:56;16.50;99.90
73360;DHT22;63092;43.582;19.528;2023-06-14T01:35:23;16.60;99.90
73360;DHT22;63092;43.582;19.528;2023-06-14T01:37:50;16.40;99.90
73360;DHT22;63092;43.582;19.528;2023-06-14T01:40:17;16.50;99.90
73360;DHT22;63092;43.582;19.528;2023-06-14T01:42:44;16.50;99.90
73360;DHT22;63092;43.582;19.528;2023-06-14T01:45:11;16.40;99.90
73360;DHT22;63092;43.582;19.528;2023-06-14T01:47:37;16.40;99.90
73360;DHT22;63092;43.582;19.528;2023-06-14T01:50:04;16.20;99.90
73360;DHT22;63092;43.582;19.528;2023-06-14T01:52:31;16.20;99.90
73360;DHT22;63092;43.582;19.528;2023-06-14T01:54:57;16.20;99.90
73360;DHT22;63092;43.582;19.528;2023-06-14T01:57:24;16.00;99.90
73360;DHT22;63092;43.582;19.528;2023-06-14T01:59:52;16.20;99.90
73360;DHT22;63092;43.582;19.528;2023-06-14T02:02:18;16.30;99.90
73360;DHT22;63092;43.582;19.528;2023-06-14T02:04:44;16.20;99.90
73360;DHT22;63092;43.582;19.528;2023-06-14T02:07:13;16.20;99.90
73360;DHT22;63092;43.582;19.528;2023-06-14T02:09:40;16.20;99.90
73360;DHT22;63092;43.582;19.528;2023-06-14T02:12:06;16.30;99.90
73360;DHT22;63092;43.582;19.528;2023-06-14T02:14:32;16.20;99.90
73360;DHT22;63092;43.582;19.528;2023-06-14T02:16:59;16.40;99.90
73360;DHT22;63092;43.582;19.528;2023-06-14T02:19:26;16.40;99.90
73360;DHT22;63092;43.582;19.528;2023-06-14T02:21:52;16.50;99.90
73360;DHT22;63092;43.582;19.528;2023-06-14T02:24:18;16.50;99.90
73360;DHT22;63092;43.582;19.528;2023-06-14T02:26:43;16.50;99.90
73360;DHT22;63092;43.582;19.528;2023-06-14T02:29:09;16.50;99.90
73360;DHT22;63092;43.582;19.528;2023-06-14T02:31:38;16.50;99.90
73360;DHT22;63092;43.582;19.528;2023-06-14T02:34:04;16.60;99.90
73360;DHT22;63092;43.582;19.528;2023-06-14T02:36:29;16.60;99.90
73360;DHT22;63092;43.582;19.528;2023-06-14T02:38:56;16.60;99.90
73360;DHT22;63092;43.582;19.528;2023-06-14T02:41:25;16.30;99.90
73360;DHT22;63092;43.582;19.528;2023-06-14T02:43:52;16.10;99.90
73360;DHT22;63092;43.582;19.528;2023-06-14T02:46:18;16.20;99.90
73360;DHT22;63092;43.582;19.528;2023-06-14T02:48:43;16.20;99.90
73360;DHT22;63092;43.582;19.528;2023-06-14T02:51:09;16.20;99.90
73360;DHT22;63092;43.582;19.528;2023-06-14T02:53:38;16.10;99.90
73360;DHT22;63092;43.582;19.528;2023-06-14T02:56:04;16.10;99.90
73360;DHT22;63092;43.582;19.528;2023-06-14T02:58:30;16.00;99.90
73360;DHT22;63092;43.582;19.528;2023-06-14T03:00:56;16.10;99.90
73360;DHT22;63092;43.582;19.528;2023-06-14T03:03:22;16.10;99.90
73360;DHT22;63092;43.582;19.528;2023-06-14T03:05:50;16.00;99.90
73360;DHT22;63092;43.582;19.528;2023-06-14T03:08:16;16.20;99.90
73360;DHT22;63092;43.582;19.528;2023-06-14T03:10:45;16.10;99.90
73360;DHT22;63092;43.582;19.528;2023-06-14T03:13:12;16.10;99.90
73360;DHT22;63092;43.582;19.528;2023-06-14T03:15:38;16.10;99.90
73360;DHT22;63092;43.582;19.528;2023-06-14T03:18:08;16.10;99.90
73360;DHT22;63092;43.582;19.528;2023-06-14T03:20:35;16.00;99.90
73360;DHT22;63092;43.582;19.528;2023-06-14T03:23:01;15.90;99.90
73360;DHT22;63092;43.582;19.528;2023-06-14T03:25:28;15.90;99.90
73360;DHT22;63092;43.582;19.528;2023-06-14T03:27:57;15.90;99.90
73360;DHT22;63092;43.582;19.528;2023-06-14T03:30:23;16.00;99.90
73360;DHT22;63092;43.582;19.528;2023-06-14T03:32:49;16.00;99.90
73360;DHT22;63092;43.582;19.528;2023-06-14T03:35:17;16.00;99.90
73360;DHT22;63092;43.582;19.528;2023-06-14T03:40:14;15.80;99.90
73360;DHT22;63092;43.582;19.528;2023-06-14T03:42:40;15.80;99.90
73360;DHT22;63092;43.582;19.528;2023-06-14T03:45:07;15.80;99.90
73360;DHT22;63092;43.582;19.528;2023-06-14T03:47:33;15.90;99.90
73360;DHT22;63092;43.582;19.528;2023-06-14T03:49:59;15.80;99.90
73360;DHT22;63092;43.582;19.528;2023-06-14T03:52:26;15.70;99.90
73360;DHT22;63092;43.582;19.528;2023-06-14T03:54:52;15.70;99.90
73360;DHT22;63092;43.582;19.528;2023-06-14T03:57:19;15.70;99.90
73360;DHT22;63092;43.582;19.528;2023-06-14T03:59:45;15.70;99.90
73360;DHT22;63092;43.582;19.528;2023-06-14T04:02:12;15.70;99.90
73360;DHT22;63092;43.582;19.528;2023-06-14T04:04:44;15.70;99.90
73360;DHT22;63092;43.582;19.528;2023-06-14T04:07:13;15.60;99.90
73360;DHT22;63092;43.582;19.528;2023-06-14T04:09:39;15.50;99.90
73360;DHT22;63092;43.582;19.528;2023-06-14T04:12:06;15.40;99.90
73360;DHT22;63092;43.582;19.528;2023-06-14T04:14:34;15.40;99.90
73360;DHT22;63092;43.582;19.528;2023-06-14T04:17:00;15.40;99.90
73360;DHT22;63092;43.582;19.528;2023-06-14T04:19:26;15.50;99.90
73360;DHT22;63092;43.582;19.528;2023-06-14T04:21:52;15.60;99.90
73360;DHT22;63092;43.582;19.528;2023-06-14T04:24:18;15.60;99.90
73360;DHT22;63092;43.582;19.528;2023-06-14T04:26:44;15.70;99.90
73360;DHT22;63092;43.582;19.528;2023-06-14T04:29:11;15.90;99.90
73360;DHT22;63092;43.582;19.528;2023-06-14T04:31:45;16.00;99.90
73360;DHT22;63092;43.582;19.528;2023-06-14T04:34:12;16.10;99.90
73360;DHT22;63092;43.582;19.528;2023-06-14T04:36:42;15.70;99.90
73360;DHT22;63092;43.582;19.528;2023-06-14T04:39:18;15.90;99.90
73360;DHT22;63092;43.582;19.528;2023-06-14T04:41:44;15.90;99.90
73360;DHT22;63092;43.582;19.528;2023-06-14T04:44:10;16.00;99.90
73360;DHT22;63092;43.582;19.528;2023-06-14T04:46:36;16.10;99.90
73360;DHT22;63092;43.582;19.528;2023-06-14T04:49:15;16.10;99.90
73360;DHT22;63092;43.582;19.528;2023-06-14T04:51:45;16.10;99.90
73360;DHT22;63092;43.582;19.528;2023-06-14T04:54:12;16.10;99.90
73360;DHT22;63092;43.582;19.528;2023-06-14T04:56:44;16.10;99.90
73360;DHT22;63092;43.582;19.528;2023-06-14T04:59:10;16.00;99.90
73360;DHT22;63092;43.582;19.528;2023-06-14T05:01:41;16.00;99.90
73360;DHT22;63092;43.582;19.528;2023-06-14T05:04:06;16.10;99.90
73360;DHT22;63092;43.582;19.528;2023-06-14T05:06:32;16.10;99.90
73360;DHT22;63092;43.582;19.528;2023-06-14T05:08:58;16.10;99.90
73360;DHT22;63092;43.582;19.528;2023-06-14T05:11:24;16.10;99.90
73360;DHT22;63092;43.582;19.528;2023-06-14T05:13:50;16.10;99.90
73360;DHT22;63092;43.582;19.528;2023-06-14T05:16:16;16.00;99.90
73360;DHT22;63092;43.582;19.528;2023-06-14T05:18:45;16.10;99.90
73360;DHT22;63092;43.582;19.528;2023-06-14T05:21:11;16.10;99.90
73360;DHT22;63092;43.582;19.528;2023-06-14T05:23:37;16.20;99.90
73360;DHT22;63092;43.582;19.528;2023-06-14T05:26:02;16.20;99.90
73360;DHT22;63092;43.582;19.528;2023-06-14T05:28:30;16.20;99.90
73360;DHT22;63092;43.582;19.528;2023-06-14T05:30:56;16.20;99.90
73360;DHT22;63092;43.582;19.528;2023-06-14T05:33:23;16.20;99.90
73360;DHT22;63092;43.582;19.528;2023-06-14T05:35:49;16.30;99.90
73360;DHT22;63092;43.582;19.528;2023-06-14T05:38:15;16.40;99.90
73360;DHT22;63092;43.582;19.528;2023-06-14T05:40:41;16.20;99.90
73360;DHT22;63092;43.582;19.528;2023-06-14T05:43:07;16.40;99.90
73360;DHT22;63092;43.582;19.528;2023-06-14T05:45:32;16.50;99.90
73360;DHT22;63092;43.582;19.528;2023-06-14T05:47:58;16.60;99.90
73360;DHT22;63092;43.582;19.528;2023-06-14T05:50:24;16.70;99.90
73360;DHT22;63092;43.582;19.528;2023-06-14T05:52:50;16.80;99.90
73360;DHT22;63092;43.582;19.528;2023-06-14T05:55:17;16.90;99.90
73360;DHT22;63092;43.582;19.528;2023-06-14T05:57:42;16.90;99.90
73360;DHT22;63092;43.582;19.528;2023-06-14T06:00:09;16.90;99.90
73360;DHT22;63092;43.582;19.528;2023-06-14T06:02:41;16.90;99.90
73360;DHT22;63092;43.582;19.528;2023-06-14T06:05:09;16.90;99.90
73360;DHT22;63092;43.582;19.528;2023-06-14T06:07:36;17.00;99.90
73360;DHT22;63092;43.582;19.528;2023-06-14T06:10:02;17.10;99.90
73360;DHT22;63092;43.582;19.528;2023-06-14T06:12:27;17.20;99.90
73360;DHT22;63092;43.582;19.528;2023-06-14T06:14:53;17.20;99.90
73360;DHT22;63092;43.582;19.528;2023-06-14T06:17:19;17.30;99.90
73360;DHT22;63092;43.582;19.528;2023-06-14T06:19:44;17.40;99.90
73360;DHT22;63092;43.582;19.528;2023-06-14T06:22:11;17.40;99.90
73360;DHT22;63092;43.582;19.528;2023-06-14T06:24:36;17.40;99.90
73360;DHT22;63092;43.582;19.528;2023-06-14T06:27:02;17.30;99.90
73360;DHT22;63092;43.582;19.528;2023-06-14T06:29:28;17.20;99.90
73360;DHT22;63092;43.582;19.528;2023-06-14T06:31:54;17.30;99.90
73360;DHT22;63092;43.582;19.528;2023-06-14T06:34:21;17.00;99.90
73360;DHT22;63092;43.582;19.528;2023-06-14T06:36:47;17.10;99.90
73360;DHT22;63092;43.582;19.528;2023-06-14T06:39:13;17.10;99.90
73360;DHT22;63092;43.582;19.528;2023-06-14T06:41:40;17.20;99.90
73360;DHT22;63092;43.582;19.528;2023-06-14T06:44:07;17.20;99.90
73360;DHT22;63092;43.582;19.528;2023-06-14T06:46:33;17.20;99.90
73360;DHT22;63092;43.582;19.528;2023-06-14T06:49:00;17.30;99.90
73360;DHT22;63092;43.582;19.528;2023-06-14T06:51:26;17.40;99.90
73360;DHT22;63092;43.582;19.528;2023-06-14T06:53:54;17.50;99.90
73360;DHT22;63092;43.582;19.528;2023-06-14T06:56:21;17.60;99.90
73360;DHT22;63092;43.582;19.528;2023-06-14T06:58:49;17.50;99.90
73360;DHT22;63092;43.582;19.528;2023-06-14T07:01:16;17.50;99.90
73360;DHT22;63092;43.582;19.528;2023-06-14T07:03:42;17.30;99.90
73360;DHT22;63092;43.582;19.528;2023-06-14T07:06:08;17.50;99.90
73360;DHT22;63092;43.582;19.528;2023-06-14T07:08:33;17.60;99.90
73360;DHT22;63092;43.582;19.528;2023-06-14T07:11:00;17.50;99.90
73360;DHT22;63092;43.582;19.528;2023-06-14T07:13:25;17.70;99.90
73360;DHT22;63092;43.582;19.528;2023-06-14T07:15:54;17.80;99.90
73360;DHT22;63092;43.582;19.528;2023-06-14T07:18:20;18.00;99.90
73360;DHT22;63092;43.582;19.528;2023-06-14T07:20:47;18.10;99.90
73360;DHT22;63092;43.582;19.528;2023-06-14T07:23:13;18.10;99.90
73360;DHT22;63092;43.582;19.528;2023-06-14T07:25:39;18.20;99.90
73360;DHT22;63092;43.582;19.528;2023-06-14T07:28:05;18.30;99.90
73360;DHT22;63092;43.582;19.528;2023-06-14T07:30:30;18.40;99.90
73360;DHT22;63092;43.582;19.528;2023-06-14T07:32:56;18.40;99.90
73360;DHT22;63092;43.582;19.528;2023-06-14T07:35:22;18.40;99.90
73360;DHT22;63092;43.582;19.528;2023-06-14T07:37:48;18.50;99.90
73360;DHT22;63092;43.582;19.528;2023-06-14T07:40:15;18.60;99.90
73360;DHT22;63092;43.582;19.528;2023-06-14T07:42:41;18.50;99.90
73360;DHT22;63092;43.582;19.528;2023-06-14T07:45:07;18.60;99.90
73360;DHT22;63092;43.582;19.528;2023-06-14T07:47:34;18.60;99.90
73360;DHT22;63092;43.582;19.528;2023-06-14T07:50:00;18.70;99.90
73360;DHT22;63092;43.582;19.528;2023-06-14T07:52:25;18.70;99.90
73360;DHT22;63092;43.582;19.528;2023-06-14T07:54:51;18.70;99.90
73360;DHT22;63092;43.582;19.528;2023-06-14T07:57:17;18.70;99.90
73360;DHT22;63092;43.582;19.528;2023-06-14T07:59:45;18.80;99.90
73360;DHT22;63092;43.582;19.528;2023-06-14T08:02:11;18.90;99.90
73360;DHT22;63092;43.582;19.528;2023-06-14T08:04:37;19.00;99.90
73360;DHT22;63092;43.582;19.528;2023-06-14T08:07:03;19.10;99.90
73360;DHT22;63092;43.582;19.528;2023-06-14T08:09:29;19.30;99.90
73360;DHT22;63092;43.582;19.528;2023-06-14T08:11:56;19.40;99.90
73360;DHT22;63092;43.582;19.528;2023-06-14T08:14:21;19.40;99.90
73360;DHT22;63092;43.582;19.528;2023-06-14T08:16:48;19.60;99.90
73360;DHT22;63092;43.582;19.528;2023-06-14T08:19:14;19.50;99.90
73360;DHT22;63092;43.582;19.528;2023-06-14T08:21:42;19.60;99.90
73360;DHT22;63092;43.582;19.528;2023-06-14T08:24:10;19.70;99.90
73360;DHT22;63092;43.582;19.528;2023-06-14T08:26:38;19.70;99.90
73360;DHT22;63092;43.582;19.528;2023-06-14T08:29:05;19.70;99.90
73360;DHT22;63092;43.582;19.528;2023-06-14T08:31:32;19.70;99.90
73360;DHT22;63092;43.582;19.528;2023-06-14T08:33:58;19.80;99.90
73360;DHT22;63092;43.582;19.528;2023-06-14T08:36:24;19.90;99.90
73360;DHT22;63092;43.582;19.528;2023-06-14T08:38:50;20.00;99.90
73360;DHT22;63092;43.582;19.528;2023-06-14T08:41:22;20.10;99.90
73360;DHT22;63092;43.582;19.528;2023-06-14T08:43:52;20.10;99.90
73360;DHT22;63092;43.582;19.528;2023-06-14T08:46:18;20.30;99.90
73360;DHT22;63092;43.582;19.528;2023-06-14T08:48:51;20.40;99.90
73360;DHT22;63092;43.582;19.528;2023-06-14T08:51:20;20.60;99.90
73360;DHT22;63092;43.582;19.528;2023-06-14T08:53:53;20.60;99.90
73360;DHT22;63092;43.582;19.528;2023-06-14T08:56:25;20.70;99.90
73360;DHT22;63092;43.582;19.528;2023-06-14T08:58:51;20.70;99.90
73360;DHT22;63092;43.582;19.528;2023-06-14T09:01:17;20.80;99.90
73360;DHT22;63092;43.582;19.528;2023-06-14T09:03:43;20.90;99.90
73360;DHT22;63092;43.582;19.528;2023-06-14T09:06:10;21.10;99.90
73360;DHT22;63092;43.582;19.528;2023-06-14T09:08:48;21.20;99.90
73360;DHT22;63092;43.582;19.528;2023-06-14T09:11:15;21.30;99.90
73360;DHT22;63092;43.582;19.528;2023-06-14T09:13:42;21.40;99.90
73360;DHT22;63092;43.582;19.528;2023-06-14T09:16:08;21.60;99.90
73360;DHT22;63092;43.582;19.528;2023-06-14T09:18:38;21.60;99.90
73360;DHT22;63092;43.582;19.528;2023-06-14T09:21:08;21.70;99.90
73360;DHT22;63092;43.582;19.528;2023-06-14T09:23:37;21.80;99.90
73360;DHT22;63092;43.582;19.528;2023-06-14T09:26:14;21.90;99.90
73360;DHT22;63092;43.582;19.528;2023-06-14T09:28:44;22.00;99.90
73360;DHT22;63092;43.582;19.528;2023-06-14T09:31:11;22.00;99.90
73360;DHT22;63092;43.582;19.528;2023-06-14T09:36:08;22.10;99.90
73360;DHT22;63092;43.582;19.528;2023-06-14T09:38:35;22.20;99.90
73360;DHT22;63092;43.582;19.528;2023-06-14T09:41:03;22.40;99.90
73360;DHT22;63092;43.582;19.528;2023-06-14T09:43:29;22.40;99.90
73360;DHT22;63092;43.582;19.528;2023-06-14T09:45:55;22.50;99.90
73360;DHT22;63092;43.582;19.528;2023-06-14T09:48:21;22.60;99.90
73360;DHT22;63092;43.582;19.528;2023-06-14T09:50:50;22.80;99.90
73360;DHT22;63092;43.582;19.528;2023-06-14T09:53:16;22.80;99.90
73360;DHT22;63092;43.582;19.528;2023-06-14T09:55:44;22.80;99.90
73360;DHT22;63092;43.582;19.528;2023-06-14T09:58:10;22.80;99.90
73360;DHT22;63092;43.582;19.528;2023-06-14T10:00:39;23.00;99.90
73360;DHT22;63092;43.582;19.528;2023-06-14T10:05:35;23.00;99.90
73360;DHT22;63092;43.582;19.528;2023-06-14T10:15:48;24.00;99.90
73360;DHT22;63092;43.582;19.528;2023-06-14T10:18:48;23.60;99.90
73360;DHT22;63092;43.582;19.528;2023-06-14T10:23:56;23.80;99.40
73360;DHT22;63092;43.582;19.528;2023-06-14T10:26:25;23.90;99.00
73360;DHT22;63092;43.582;19.528;2023-06-14T10:28:59;24.00;99.00
73360;DHT22;63092;43.582;19.528;2023-06-14T10:31:44;24.10;98.10
73360;DHT22;63092;43.582;19.528;2023-06-14T10:34:11;24.10;98.80
73360;DHT22;63092;43.582;19.528;2023-06-14T10:36:41;24.10;99.50
73360;DHT22;63092;43.582;19.528;2023-06-14T10:39:17;24.10;98.20
73360;DHT22;63092;43.582;19.528;2023-06-14T10:41:56;24.20;98.00
73360;DHT22;63092;43.582;19.528;2023-06-14T10:46:48;24.20;98.20
73360;DHT22;63092;43.582;19.528;2023-06-14T10:51:51;24.30;98.20
73360;DHT22;63092;43.582;19.528;2023-06-14T10:54:21;24.20;98.00
73360;DHT22;63092;43.582;19.528;2023-06-14T10:56:48;24.30;99.30
73360;DHT22;63092;43.582;19.528;2023-06-14T10:59:15;24.30;98.60
73360;DHT22;63092;43.582;19.528;2023-06-14T11:05:03;24.10;98.80
73360;DHT22;63092;43.582;19.528;2023-06-14T11:10:39;23.90;98.00
73360;DHT22;63092;43.582;19.528;2023-06-14T11:13:09;23.80;98.40
73360;DHT22;63092;43.582;19.528;2023-06-14T11:15:35;23.70;98.90
73360;DHT22;63092;43.582;19.528;2023-06-14T11:18:05;23.70;99.00
73360;DHT22;63092;43.582;19.528;2023-06-14T11:20:34;23.60;98.80
73360;DHT22;63092;43.582;19.528;2023-06-14T11:23:01;23.60;99.00
73360;DHT22;63092;43.582;19.528;2023-06-14T11:25:27;23.50;99.70
73360;DHT22;63092;43.582;19.528;2023-06-14T11:27:53;23.40;98.80
73360;DHT22;63092;43.582;19.528;2023-06-14T11:30:20;23.30;98.90
73360;DHT22;63092;43.582;19.528;2023-06-14T11:32:50;23.40;99.10
73360;DHT22;63092;43.582;19.528;2023-06-14T11:35:17;23.30;99.70
73360;DHT22;63092;43.582;19.528;2023-06-14T11:37:44;23.30;99.90
73360;DHT22;63092;43.582;19.528;2023-06-14T11:40:11;23.20;99.90
73360;DHT22;63092;43.582;19.528;2023-06-14T11:42:40;23.10;99.90
73360;DHT22;63092;43.582;19.528;2023-06-14T11:45:10;23.10;99.90
73360;DHT22;63092;43.582;19.528;2023-06-14T11:47:40;22.90;99.90
73360;DHT22;63092;43.582;19.528;2023-06-14T11:50:07;22.70;99.90
73360;DHT22;63092;43.582;19.528;2023-06-14T11:52:38;22.40;99.90
73360;DHT22;63092;43.582;19.528;2023-06-14T11:55:06;22.20;99.30
73360;DHT22;63092;43.582;19.528;2023-06-14T11:57:35;21.60;99.90
73360;DHT22;63092;43.582;19.528;2023-06-14T12:00:06;21.60;99.90
73360;DHT22;63092;43.582;19.528;2023-06-14T12:02:38;21.30;99.90
73360;DHT22;63092;43.582;19.528;2023-06-14T12:05:06;21.40;99.90
73360;DHT22;63092;43.582;19.528;2023-06-14T12:07:38;21.10;99.90
73360;DHT22;63092;43.582;19.528;2023-06-14T12:10:08;20.90;99.90
73360;DHT22;63092;43.582;19.528;2023-06-14T12:12:40;20.60;99.90
73360;DHT22;63092;43.582;19.528;2023-06-14T12:15:09;20.60;99.90
73360;DHT22;63092;43.582;19.528;2023-06-14T12:17:38;20.60;99.90
73360;DHT22;63092;43.582;19.528;2023-06-14T12:20:12;20.40;99.90
73360;DHT22;63092;43.582;19.528;2023-06-14T12:22:58;20.50;99.90
73360;DHT22;63092;43.582;19.528;2023-06-14T12:25:33;20.60;99.90
73360;DHT22;63092;43.582;19.528;2023-06-14T12:28:07;20.80;99.90
73360;DHT22;63092;43.582;19.528;2023-06-14T12:30:33;20.70;99.90
73360;DHT22;63092;43.582;19.528;2023-06-14T12:32:59;20.70;99.90
73360;DHT22;63092;43.582;19.528;2023-06-14T12:35:25;20.70;99.90
73360;DHT22;63092;43.582;19.528;2023-06-14T12:37:51;20.70;99.90
73360;DHT22;63092;43.582;19.528;2023-06-14T12:40:17;20.70;99.90
73360;DHT22;63092;43.582;19.528;2023-06-14T12:42:47;20.80;99.90
73360;DHT22;63092;43.582;19.528;2023-06-14T12:45:14;20.80;99.90
73360;DHT22;63092;43.582;19.528;2023-06-14T12:47:40;20.80;99.90
73360;DHT22;63092;43.582;19.528;2023-06-14T12:50:06;20.80;99.90
73360;DHT22;63092;43.582;19.528;2023-06-14T12:52:32;20.80;99.90
73360;DHT22;63092;43.582;19.528;2023-06-14T12:55:04;20.80;99.90
73360;DHT22;63092;43.582;19.528;2023-06-14T12:57:30;20.80;99.90
73360;DHT22;63092;43.582;19.528;2023-06-14T12:59:56;20.90;99.90
73360;DHT22;63092;43.582;19.528;2023-06-14T13:02:22;21.00;99.90
73360;DHT22;63092;43.582;19.528;2023-06-14T13:04:50;20.90;99.90
73360;DHT22;63092;43.582;19.528;2023-06-14T13:07:16;20.90;99.90
73360;DHT22;63092;43.582;19.528;2023-06-14T13:09:42;20.90;99.90
73360;DHT22;63092;43.582;19.528;2023-06-14T13:12:12;21.00;99.90
73360;DHT22;63092;43.582;19.528;2023-06-14T13:14:38;21.10;99.90
73360;DHT22;63092;43.582;19.528;2023-06-14T13:17:04;21.10;99.90
73360;DHT22;63092;43.582;19.528;2023-06-14T13:19:31;21.20;99.90
73360;DHT22;63092;43.582;19.528;2023-06-14T13:21:56;21.30;99.90
73360;DHT22;63092;43.582;19.528;2023-06-14T13:24:22;21.30;99.90
73360;DHT22;63092;43.582;19.528;2023-06-14T13:26:48;21.40;99.90
73360;DHT22;63092;43.582;19.528;2023-06-14T13:29:14;21.60;99.90
73360;DHT22;63092;43.582;19.528;2023-06-14T13:31:39;21.50;99.90
73360;DHT22;63092;43.582;19.528;2023-06-14T13:34:06;21.40;99.90
73360;DHT22;63092;43.582;19.528;2023-06-14T13:36:32;21.60;99.90
73360;DHT22;63092;43.582;19.528;2023-06-14T13:38:58;21.60;99.90
73360;DHT22;63092;43.582;19.528;2023-06-14T13:41:28;21.70;99.90
73360;DHT22;63092;43.582;19.528;2023-06-14T13:43:57;21.80;99.90
73360;DHT22;63092;43.582;19.528;2023-06-14T13:46:24;21.80;99.90
73360;DHT22;63092;43.582;19.528;2023-06-14T13:48:50;21.50;99.90
73360;DHT22;63092;43.582;19.528;2023-06-14T13:51:17;21.60;99.90
73360;DHT22;63092;43.582;19.528;2023-06-14T13:53:47;21.50;99.90
73360;DHT22;63092;43.582;19.528;2023-06-14T13:56:13;21.40;99.90
73360;DHT22;63092;43.582;19.528;2023-06-14T13:58:38;21.40;99.90
73360;DHT22;63092;43.582;19.528;2023-06-14T14:01:04;21.30;99.90
73360;DHT22;63092;43.582;19.528;2023-06-14T14:03:30;21.30;99.90
73360;DHT22;63092;43.582;19.528;2023-06-14T14:05:56;21.30;99.90
73360;DHT22;63092;43.582;19.528;2023-06-14T14:08:22;21.30;99.90
73360;DHT22;63092;43.582;19.528;2023-06-14T14:10:47;21.30;99.90
73360;DHT22;63092;43.582;19.528;2023-06-14T14:13:13;21.20;99.90
73360;DHT22;63092;43.582;19.528;2023-06-14T14:15:39;21.10;99.90
73360;DHT22;63092;43.582;19.528;2023-06-14T14:18:05;21.10;99.90
73360;DHT22;63092;43.582;19.528;2023-06-14T14:20:31;21.00;99.90
73360;DHT22;63092;43.582;19.528;2023-06-14T14:22:58;21.00;99.90
73360;DHT22;63092;43.582;19.528;2023-06-14T14:25:23;20.80;99.90
73360;DHT22;63092;43.582;19.528;2023-06-14T14:27:49;20.90;99.90
73360;DHT22;63092;43.582;19.528;2023-06-14T14:30:15;20.80;99.90
73360;DHT22;63092;43.582;19.528;2023-06-14T14:32:42;20.90;99.90
73360;DHT22;63092;43.582;19.528;2023-06-14T14:35:08;21.00;99.90
73360;DHT22;63092;43.582;19.528;2023-06-14T14:37:34;21.10;99.90
73360;DHT22;63092;43.582;19.528;2023-06-14T14:40:00;21.10;99.90
73360;DHT22;63092;43.582;19.528;2023-06-14T14:42:26;21.20;99.90
73360;DHT22;63092;43.582;19.528;2023-06-14T14:44:52;21.10;99.90
73360;DHT22;63092;43.582;19.528;2023-06-14T14:47:18;21.10;99.90
73360;DHT22;63092;43.582;19.528;2023-06-14T14:49:43;21.10;99.90
73360;DHT22;63092;43.582;19.528;2023-06-14T14:52:09;21.30;99.90
73360;DHT22;63092;43.582;19.528;2023-06-14T14:54:35;21.40;99.90
73360;DHT22;63092;43.582;19.528;2023-06-14T14:57:01;21.20;99.90
73360;DHT22;63092;43.582;19.528;2023-06-14T14:59:27;21.20;99.90
73360;DHT22;63092;43.582;19.528;2023-06-14T15:01:53;21.10;99.90
73360;DHT22;63092;43.582;19.528;2023-06-14T15:04:19;21.00;99.90
73360;DHT22;63092;43.582;19.528;2023-06-14T15:06:44;20.90;99.90
73360;DHT22;63092;43.582;19.528;2023-06-14T15:09:10;20.90;99.90
73360;DHT22;63092;43.582;19.528;2023-06-14T15:11:36;21.00;99.90
73360;DHT22;63092;43.582;19.528;2023-06-14T15:14:02;21.10;99.90
73360;DHT22;63092;43.582;19.528;2023-06-14T15:16:27;21.20;99.90
73360;DHT22;63092;43.582;19.528;2023-06-14T15:18:54;21.30;99.90
73360;DHT22;63092;43.582;19.528;2023-06-14T15:21:20;21.40;99.90
73360;DHT22;63092;43.582;19.528;2023-06-14T15:23:47;21.40;99.90
73360;DHT22;63092;43.582;19.528;2023-06-14T15:26:13;21.30;99.90
73360;DHT22;63092;43.582;19.528;2023-06-14T15:28:39;21.40;99.90
73360;DHT22;63092;43.582;19.528;2023-06-14T15:31:05;21.30;99.90
73360;DHT22;63092;43.582;19.528;2023-06-14T15:33:31;21.30;99.90
73360;DHT22;63092;43.582;19.528;2023-06-14T15:35:57;21.30;99.90
73360;DHT22;63092;43.582;19.528;2023-06-14T15:38:23;21.10;99.90
73360;DHT22;63092;43.582;19.528;2023-06-14T15:40:48;21.10;99.90
73360;DHT22;63092;43.582;19.528;2023-06-14T15:43:14;21.10;99.90
73360;DHT22;63092;43.582;19.528;2023-06-14T15:45:40;21.10;99.90
73360;DHT22;63092;43.582;19.528;2023-06-14T15:48:08;21.20;99.90
73360;DHT22;63092;43.582;19.528;2023-06-14T15:50:34;21.10;99.90